Time;durP1;ratioP1;P1;durP2;ratioP2;P2;SDS_P1;SDS_P2;PMS_P1;PMS_P2;Temp;Humidity;BMP_temperature;BMP_pressure;BME280_temperature;BME280_humidity;BME280_pressure;Samples;Min_cycle;Max_cycle;Signal;HPM_P1;HPM_P2
2023/06/22 00:01:49;;;;;;;;;;;;;;;;;;5037322;28;19957;-68
2023/06/22 00:04:15;;;;;;;;;;;;;;;;;;5036370;28;20382;-69
2023/06/22 00:06:41;;;;;;;;;;;;;;;;;;5036758;28;19956;-68
2023/06/22 00:09:07;;;;;;;;;;;;;;;;;;5036375;28;20050;-68
2023/06/22 00:11:33;;;;;;;;;;;;;;;;;;5036341;28;19955;-68
2023/06/22 00:13:59;;;;;;;;;;;;;;;;;;5036575;28;19960;-68
2023/06/22 00:16:25;;;;;;;;;;;;;;;;;;5036507;28;20469;-68
2023/06/22 00:18:50;;;;;;;;;;;;;;;;;;5036775;28;19960;-68
2023/06/22 00:21:16;;;;;;;;;;;;;;;;;;5036160;28;20447;-68
2023/06/22 00:23:43;;;;;;;;;;;;;;;;;;5036066;28;20026;-67
2023/06/22 00:26:09;;;;;;;;;;;;;;;;;;5036363;28;19991;-67
2023/06/22 00:28:35;;;;;;;;;;;;;;;;;;5036040;28;20007;-68
2023/06/22 00:31:00;;;;;;;;;;;;;;;;;;5036036;28;20348;-69
2023/06/22 00:33:28;;;;;;;;;;;;;;;;;;5036202;28;20157;-69
2023/06/22 00:35:54;;;;;;;;;;;;;;;;;;5035525;28;19994;-67
2023/06/22 00:38:19;;;;;;;;;;;;;;;;;;5036461;28;20389;-68
2023/06/22 00:40:45;;;;;;;;;;;;;;;;;;5035856;28;19994;-68
2023/06/22 00:43:11;;;;;;;;;;;;;;;;;;5035499;28;20038;-69
2023/06/22 00:45:37;;;;;;;;;;;;;;;;;;5036006;28;19956;-68
2023/06/22 00:48:03;;;;;;;;;;;;;;;;;;5035945;28;19956;-68
2023/06/22 00:50:33;;;;;;;;;;;;;;;;;;5035688;28;20019;-68
2023/06/22 00:52:58;;;;;;;;;;;;;;;;;;5036158;28;19963;-67
2023/06/22 00:55:25;;;;;;;;;;;;;;;;;;5035827;28;19960;-68
2023/06/22 00:57:55;;;;;;;;;;;;;;;;;;5036065;28;19964;-68
2023/06/22 01:00:24;;;;;;;;;;;;;;;;;;5035968;28;19939;-67
2023/06/22 01:02:51;;;;;;;;;;;;;;;;;;5035661;28;19983;-68
2023/06/22 01:05:17;;;;;;;;;;;;;;;;;;5035354;28;20002;-69
2023/06/22 01:07:43;;;;;;;;;;;;;;;;;;5035559;28;20040;-69
2023/06/22 01:10:09;;;;;;;;;;;;;;;;;;5035547;28;20297;-67
2023/06/22 01:12:35;;;;;;;;;;;;;;;;;;5035203;28;19965;-68
2023/06/22 01:15:01;;;;;;;;;;;;;;;;;;5035169;28;19960;-68
2023/06/22 01:17:27;;;;;;;;;;;;;;;;;;5035351;28;19999;-68
2023/06/22 01:19:55;;;;;;;;;;;;;;;;;;5035093;28;19956;-68
2023/06/22 01:22:21;;;;;;;;;;;;;;;;;;5033679;28;19997;-68
2023/06/22 01:24:47;;;;;;;;;;;;;;;;;;5035236;28;19997;-68
2023/06/22 01:27:14;;;;;;;;;;;;;;;;;;5034911;28;19956;-68
2023/06/22 01:29:40;;;;;;;;;;;;;;;;;;5035156;28;19956;-69
2023/06/22 01:32:06;;;;;;;;;;;;;;;;;;5034843;28;19964;-68
2023/06/22 01:34:32;;;;;;;;;;;;;;;;;;5035036;28;20091;-68
2023/06/22 01:36:58;;;;;;;;;;;;;;;;;;5034743;28;19956;-68
2023/06/22 01:39:23;;;;;;;;;;;;;;;;;;5034996;28;19998;-67
2023/06/22 01:41:49;;;;;;;;;;;;;;;;;;5034470;28;20463;-67
2023/06/22 01:44:15;;;;;;;;;;;;;;;;;;5034859;28;19976;-68
2023/06/22 01:46:41;;;;;;;;;;;;;;;;;;5034554;28;19960;-68
2023/06/22 01:49:07;;;;;;;;;;;;;;;;;;5034436;28;20397;-68
2023/06/22 01:51:33;;;;;;;;;;;;;;;;;;5034485;28;19963;-68
2023/06/22 01:53:59;;;;;;;;;;;;;;;;;;5034987;28;20413;-68
2023/06/22 01:56:25;;;;;;;;;;;;;;;;;;5034435;28;19999;-68
2023/06/22 01:58:51;;;;;;;;;;;;;;;;;;5034940;28;20400;-69
2023/06/22 02:01:16;;;;;;;;;;;;;;;;;;5035094;28;19963;-69
2023/06/22 02:03:42;;;;;;;;;;;;;;;;;;5034170;28;20074;-69
2023/06/22 02:06:08;;;;;;;;;;;;;;;;;;5034500;28;20035;-68
2023/06/22 02:08:34;;;;;;;;;;;;;;;;;;5034177;28;19992;-68
2023/06/22 02:11:00;;;;;;;;;;;;;;;;;;5034479;28;20005;-68
2023/06/22 02:13:26;;;;;;;;;;;;;;;;;;5034134;28;19955;-67
2023/06/22 02:15:52;;;;;;;;;;;;;;;;;;5034650;28;20359;-68
2023/06/22 02:18:18;;;;;;;;;;;;;;;;;;5034041;28;19987;-68
2023/06/22 02:20:44;;;;;;;;;;;;;;;;;;5034017;28;20004;-67
2023/06/22 02:23:10;;;;;;;;;;;;;;;;;;5033892;28;19976;-68
2023/06/22 02:25:36;;;;;;;;;;;;;;;;;;5034257;28;20039;-68
2023/06/22 02:28:01;;;;;;;;;;;;;;;;;;5034141;28;19955;-67
2023/06/22 02:30:28;;;;;;;;;;;;;;;;;;5033880;28;19957;-68
2023/06/22 02:32:58;;;;;;;;;;;;;;;;;;5032317;28;19960;-68
2023/06/22 02:35:24;;;;;;;;;;;;;;;;;;5033780;28;20025;-68
2023/06/22 02:37:51;;;;;;;;;;;;;;;;;;5034059;28;19960;-67
2023/06/22 02:40:17;;;;;;;;;;;;;;;;;;5033775;28;20296;-68
2023/06/22 02:42:43;;;;;;;;;;;;;;;;;;5033796;28;20090;-68
2023/06/22 02:45:09;;;;;;;;;;;;;;;;;;5033724;28;19957;-68
2023/06/22 02:47:35;;;;;;;;;;;;;;;;;;5034244;28;20408;-68
2023/06/22 02:50:01;;;;;;;;;;;;;;;;;;5033943;28;19964;-67
2023/06/22 02:52:27;;;;;;;;;;;;;;;;;;5033625;28;20447;-67
2023/06/22 02:54:53;;;;;;;;;;;;;;;;;;5033665;28;19982;-68
2023/06/22 02:57:18;;;;;;;;;;;;;;;;;;5034217;28;20415;-68
2023/06/22 02:59:44;;;;;;;;;;;;;;;;;;5035644;28;19964;-68
2023/06/22 03:02:11;;;;;;;;;;;;;;;;;;5038227;28;19963;-68
2023/06/22 03:04:37;;;;;;;;;;;;;;;;;;5037792;28;19975;-68
2023/06/22 03:07:03;;;;;;;;;;;;;;;;;;5037576;28;19963;-68
2023/06/22 03:09:28;;;;;;;;;;;;;;;;;;5037801;28;20496;-67
2023/06/22 03:11:54;;;;;;;;;;;;;;;;;;5037435;28;19965;-68
2023/06/22 03:14:20;;;;;;;;;;;;;;;;;;5037502;28;20344;-68
2023/06/22 03:16:46;;;;;;;;;;;;;;;;;;5037952;28;20328;-68
2023/06/22 03:19:12;;;;;;;;;;;;;;;;;;5037375;28;19956;-68
2023/06/22 03:21:38;;;;;;;;;;;;;;;;;;5037601;28;19956;-68
2023/06/22 03:24:04;;;;;;;;;;;;;;;;;;5037161;28;20066;-68
2023/06/22 03:26:30;;;;;;;;;;;;;;;;;;5037813;28;19960;-69
2023/06/22 03:28:56;;;;;;;;;;;;;;;;;;5037164;28;19957;-68
2023/06/22 03:31:21;;;;;;;;;;;;;;;;;;5037148;28;20481;-68
2023/06/22 03:33:48;;;;;;;;;;;;;;;;;;5037061;28;19999;-69
2023/06/22 03:36:18;;;;;;;;;;;;;;;;;;5037622;28;19967;-68
2023/06/22 03:38:44;;;;;;;;;;;;;;;;;;5037014;28;19956;-68
2023/06/22 03:41:10;;;;;;;;;;;;;;;;;;5036951;28;19979;-69
2023/06/22 03:43:36;;;;;;;;;;;;;;;;;;5036618;28;19991;-67
2023/06/22 03:46:02;;;;;;;;;;;;;;;;;;5035548;28;19968;-67
2023/06/22 03:48:28;;;;;;;;;;;;;;;;;;5037358;28;19992;-69
2023/06/22 03:50:53;;;;;;;;;;;;;;;;;;5036759;28;19963;-68
2023/06/22 03:53:19;;;;;;;;;;;;;;;;;;5036741;28;19960;-67
2023/06/22 03:55:45;;;;;;;;;;;;;;;;;;5036706;28;20057;-67
2023/06/22 03:58:12;;;;;;;;;;;;;;;;;;5036945;28;19957;-68
2023/06/22 04:00:37;;;;;;;;;;;;;;;;;;5037111;28;19956;-67
2023/06/22 04:03:03;;;;;;;;;;;;;;;;;;5037036;28;19982;-68
2023/06/22 04:05:29;;;;;;;;;;;;;;;;;;5036859;28;19956;-68
2023/06/22 04:07:55;;;;;;;;;;;;;;;;;;5036497;28;19960;-67
2023/06/22 04:10:21;;;;;;;;;;;;;;;;;;5036461;28;20303;-68
2023/06/22 04:12:47;;;;;;;;;;;;;;;;;;5036467;28;20007;-68
2023/06/22 04:15:13;;;;;;;;;;;;;;;;;;5036318;28;20435;-68
2023/06/22 04:17:39;;;;;;;;;;;;;;;;;;5036576;28;20002;-67
2023/06/22 04:20:05;;;;;;;;;;;;;;;;;;5036253;28;20379;-68
2023/06/22 04:22:31;;;;;;;;;;;;;;;;;;5036131;28;20385;-68
2023/06/22 04:24:57;;;;;;;;;;;;;;;;;;5036164;28;20114;-68
2023/06/22 04:27:23;;;;;;;;;;;;;;;;;;5036427;28;19956;-67
2023/06/22 04:29:49;;;;;;;;;;;;;;;;;;5036090;28;20320;-68
2023/06/22 04:32:15;;;;;;;;;;;;;;;;;;5036598;28;20001;-67
2023/06/22 04:34:41;;;;;;;;;;;;;;;;;;5035916;28;20374;-68
2023/06/22 04:37:06;;;;;;;;;;;;;;;;;;5036498;28;19956;-68
2023/06/22 04:39:32;;;;;;;;;;;;;;;;;;5035854;28;19956;-67
2023/06/22 04:42:01;;;;;;;;;;;;;;;;;;5035646;28;19998;-68
2023/06/22 04:44:27;;;;;;;;;;;;;;;;;;5036287;28;20012;-68
2023/06/22 04:46:53;;;;;;;;;;;;;;;;;;5035706;28;20007;-68
2023/06/22 04:49:19;;;;;;;;;;;;;;;;;;5035983;28;20327;-68
2023/06/22 04:51:45;;;;;;;;;;;;;;;;;;5035934;28;19959;-67
2023/06/22 04:54:11;;;;;;;;;;;;;;;;;;5035620;28;19982;-67
2023/06/22 04:56:37;;;;;;;;;;;;;;;;;;5036160;28;20416;-67
2023/06/22 04:59:03;;;;;;;;;;;;;;;;;;5035515;28;19963;-68
2023/06/22 05:01:30;;;;;;;;;;;;;;;;;;5036228;28;19963;-68
2023/06/22 05:03:56;;;;;;;;;;;;;;;;;;5035385;28;19975;-69
2023/06/22 05:06:24;;;;;;;;;;;;;;;;;;5035317;28;20447;-69
2023/06/22 05:08:50;;;;;;;;;;;;;;;;;;5035841;28;20413;-68
2023/06/22 05:11:16;;;;;;;;;;;;;;;;;;5035279;28;19956;-67
2023/06/22 05:13:42;;;;;;;;;;;;;;;;;;5035220;28;19956;-68
2023/06/22 05:16:08;;;;;;;;;;;;;;;;;;5035439;28;20035;-67
2023/06/22 05:18:34;;;;;;;;;;;;;;;;;;5035137;28;20409;-68
2023/06/22 05:21:00;;;;;;;;;;;;;;;;;;5035053;28;19957;-68
2023/06/22 05:23:26;;;;;;;;;;;;;;;;;;5034182;28;19976;-68
2023/06/22 05:25:52;;;;;;;;;;;;;;;;;;5035235;28;19956;-69
2023/06/22 05:28:22;;;;;;;;;;;;;;;;;;5034955;28;19963;-67
2023/06/22 05:30:48;;;;;;;;;;;;;;;;;;5035155;28;19991;-68
2023/06/22 05:33:14;;;;;;;;;;;;;;;;;;5034805;28;19985;-69
2023/06/22 05:35:41;;;;;;;;;;;;;;;;;;5034725;28;20121;-68
2023/06/22 05:38:07;;;;;;;;;;;;;;;;;;5034985;28;20432;-68
2023/06/22 05:40:33;;;;;;;;;;;;;;;;;;5033475;28;19959;-67
2023/06/22 05:43:00;;;;;;;;;;;;;;;;;;5034644;28;19991;-69
2023/06/22 05:45:26;;;;;;;;;;;;;;;;;;5033342;28;20042;-69
2023/06/22 05:47:52;;;;;;;;;;;;;;;;;;5034881;28;20050;-67
2023/06/22 05:50:18;;;;;;;;;;;;;;;;;;5035102;28;19955;-68
2023/06/22 05:52:44;;;;;;;;;;;;;;;;;;5034519;28;19999;-68
2023/06/22 05:55:10;;;;;;;;;;;;;;;;;;5034393;28;19956;-68
2023/06/22 05:57:36;;;;;;;;;;;;;;;;;;5034975;28;20447;-68
2023/06/22 06:00:05;;;;;;;;;;;;;;;;;;5034460;28;19956;-69
2023/06/22 06:02:33;;;;;;;;;;;;;;;;;;5034809;28;19960;-69
2023/06/22 06:04:59;;;;;;;;;;;;;;;;;;5034550;28;20002;-67
2023/06/22 06:07:26;;;;;;;;;;;;;;;;;;5034241;28;19964;-69
2023/06/22 06:09:52;;;;;;;;;;;;;;;;;;5034206;28;20006;-69
2023/06/22 06:12:18;;;;;;;;;;;;;;;;;;5034167;28;19957;-69
2023/06/22 06:14:43;;;;;;;;;;;;;;;;;;5034138;28;19957;-68
2023/06/22 06:17:09;;;;;;;;;;;;;;;;;;5034614;28;19955;-67
2023/06/22 06:19:35;;;;;;;;;;;;;;;;;;5034335;28;19959;-67
2023/06/22 06:22:01;;;;;;;;;;;;;;;;;;5034620;28;19956;-68
2023/06/22 06:24:27;;;;;;;;;;;;;;;;;;5033926;28;20497;-69
2023/06/22 06:26:53;;;;;;;;;;;;;;;;;;5033936;28;20055;-69
2023/06/22 06:29:19;;;;;;;;;;;;;;;;;;5034468;28;20400;-69
2023/06/22 06:31:45;;;;;;;;;;;;;;;;;;5033847;28;19956;-69
2023/06/22 06:34:11;;;;;;;;;;;;;;;;;;5033654;28;19990;-69
2023/06/22 06:36:37;;;;;;;;;;;;;;;;;;5034324;28;19963;-69
2023/06/22 06:39:03;;;;;;;;;;;;;;;;;;5033762;28;20443;-69
2023/06/22 06:41:29;;;;;;;;;;;;;;;;;;5033791;28;19955;-69
2023/06/22 06:43:55;;;;;;;;;;;;;;;;;;5033172;28;20007;-69
2023/06/22 06:46:23;;;;;;;;;;;;;;;;;;5033260;28;20354;-68
2023/06/22 06:48:49;;;;;;;;;;;;;;;;;;5033666;28;19956;-69
2023/06/22 06:51:15;;;;;;;;;;;;;;;;;;5034448;28;20141;-69
2023/06/22 06:53:41;;;;;;;;;;;;;;;;;;5033590;28;19957;-69
2023/06/22 06:56:06;;;;;;;;;;;;;;;;;;5033823;28;19955;-67
2023/06/22 06:58:32;;;;;;;;;;;;;;;;;;5046832;28;20346;-70
2023/06/22 07:00:58;;;;;;;;;;;;;;;;;;5046418;28;19999;-70
2023/06/22 07:03:24;;;;;;;;;;;;;;;;;;5037966;28;20474;-68
2023/06/22 07:05:50;;;;;;;;;;;;;;;;;;5045664;28;19960;-69
2023/06/22 07:08:16;;;;;;;;;;;;;;;;;;5044194;28;19983;-69
2023/06/22 07:10:42;;;;;;;;;;;;;;;;;;5033491;28;19955;-68
2023/06/22 07:13:08;;;;;;;;;;;;;;;;;;5033739;28;20054;-69
2023/06/22 07:15:33;;;;;;;;;;;;;;;;;;5037090;28;19967;-70
2023/06/22 07:17:59;;;;;;;;;;;;;;;;;;5033622;28;19963;-68
2023/06/22 07:20:25;;;;;;;;;;;;;;;;;;5040640;28;19986;-70
2023/06/22 07:22:51;;;;;;;;;;;;;;;;;;5047487;28;20010;-69
2023/06/22 07:25:17;;;;;;;;;;;;;;;;;;5053222;28;20010;-70
2023/06/22 07:27:43;;;;;;;;;;;;;;;;;;5053213;28;20004;-73
2023/06/22 07:30:09;;;;;;;;;;;;;;;;;;5051150;28;20018;-72
2023/06/22 07:32:35;;;;;;;;;;;;;;;;;;5067460;28;19962;-70
2023/06/22 07:35:02;;;;;;;;;;;;;;;;;;5073289;28;19994;-70
2023/06/22 07:37:28;;;;;;;;;;;;;;;;;;5073381;28;20326;-70
2023/06/22 07:39:58;;;;;;;;;;;;;;;;;;5073121;28;19954;-70
2023/06/22 07:42:23;;;;;;;;;;;;;;;;;;5073308;28;19990;-72
2023/06/22 07:44:50;;;;;;;;;;;;;;;;;;5072988;28;19998;-71
2023/06/22 07:47:19;;;;;;;;;;;;;;;;;;5065346;28;20003;-69
2023/06/22 07:49:45;;;;;;;;;;;;;;;;;;5058863;28;19974;-71
2023/06/22 07:52:10;;;;;;;;;;;;;;;;;;5055116;28;19959;-71
2023/06/22 07:54:36;;;;;;;;;;;;;;;;;;5044100;28;20021;-71
2023/06/22 07:57:02;;;;;;;;;;;;;;;;;;5036968;28;19955;-71
2023/06/22 07:59:28;;;;;;;;;;;;;;;;;;5057422;28;19967;-71
2023/06/22 08:01:54;;;;;;;;;;;;;;;;;;5044201;28;19967;-66
2023/06/22 08:04:20;;;;;;;;;;;;;;;;;;5036703;28;20343;-66
2023/06/22 08:06:46;;;;;;;;;;;;;;;;;;5036482;28;19996;-66
2023/06/22 08:09:12;;;;;;;;;;;;;;;;;;5036141;28;19966;-66
2023/06/22 08:11:38;;;;;;;;;;;;;;;;;;5038726;28;20402;-68
2023/06/22 08:14:04;;;;;;;;;;;;;;;;;;5043708;28;19963;-70
2023/06/22 08:16:29;;;;;;;;;;;;;;;;;;5048008;28;19994;-67
2023/06/22 08:18:56;;;;;;;;;;;;;;;;;;5044751;28;19970;-68
2023/06/22 08:21:22;;;;;;;;;;;;;;;;;;5048055;28;19956;-69
2023/06/22 08:23:48;;;;;;;;;;;;;;;;;;5038375;28;20073;-68
2023/06/22 08:26:14;;;;;;;;;;;;;;;;;;5047880;28;20338;-67
2023/06/22 08:28:40;;;;;;;;;;;;;;;;;;5039674;28;19963;-69
2023/06/22 08:31:05;;;;;;;;;;;;;;;;;;5049143;28;19972;-69
2023/06/22 08:33:32;;;;;;;;;;;;;;;;;;5040035;28;20042;-67
2023/06/22 08:35:58;;;;;;;;;;;;;;;;;;5036158;28;20018;-71
2023/06/22 08:38:24;;;;;;;;;;;;;;;;;;5052234;28;19957;-70
2023/06/22 08:40:50;;;;;;;;;;;;;;;;;;5051201;28;19990;-67
2023/06/22 08:43:16;;;;;;;;;;;;;;;;;;5055116;28;20390;-67
2023/06/22 08:45:41;;;;;;;;;;;;;;;;;;5054886;28;19956;-68
2023/06/22 08:48:07;;;;;;;;;;;;;;;;;;5040725;28;19960;-70
2023/06/22 08:50:33;;;;;;;;;;;;;;;;;;5042494;28;19995;-72
2023/06/22 08:52:59;;;;;;;;;;;;;;;;;;5055825;28;20000;-69
2023/06/22 08:55:25;;;;;;;;;;;;;;;;;;5040537;28;19970;-71
2023/06/22 08:57:51;;;;;;;;;;;;;;;;;;5039686;28;19991;-70
2023/06/22 09:00:18;;;;;;;;;;;;;;;;;;5045213;28;19962;-70
2023/06/22 09:02:44;;;;;;;;;;;;;;;;;;5037577;28;19963;-69
2023/06/22 09:05:10;;;;;;;;;;;;;;;;;;5055549;28;19955;-71
2023/06/22 09:07:36;;;;;;;;;;;;;;;;;;5054768;28;19989;-73
2023/06/22 09:10:04;;;;;;;;;;;;;;;;;;5046856;28;19962;-69
2023/06/22 09:12:30;;;;;;;;;;;;;;;;;;5056037;28;20316;-66
2023/06/22 09:14:56;;;;;;;;;;;;;;;;;;5052147;28;19963;-68
2023/06/22 09:17:22;;;;;;;;;;;;;;;;;;5050203;28;19960;-64
2023/06/22 09:19:48;;;;;;;;;;;;;;;;;;5046488;28;20029;-69
2023/06/22 09:22:14;;;;;;;;;;;;;;;;;;5036592;28;19971;-66
2023/06/22 09:24:40;;;;;;;;;;;;;;;;;;5041341;28;19974;-66
2023/06/22 09:27:06;;;;;;;;;;;;;;;;;;5046643;28;20371;-66
2023/06/22 09:29:33;;;;;;;;;;;;;;;;;;5050307;28;19975;-64
2023/06/22 09:31:59;;;;;;;;;;;;;;;;;;5050924;28;20466;-64
2023/06/22 09:34:25;;;;;;;;;;;;;;;;;;5044567;28;20021;-66
2023/06/22 09:36:51;;;;;;;;;;;;;;;;;;5052321;28;20342;-71
2023/06/22 09:39:17;;;;;;;;;;;;;;;;;;5035379;28;19962;-71
2023/06/22 09:41:43;;;;;;;;;;;;;;;;;;5041995;28;19981;-66
2023/06/22 09:44:09;;;;;;;;;;;;;;;;;;5038219;28;20448;-69
2023/06/22 09:46:34;;;;;;;;;;;;;;;;;;5049779;28;20068;-68
2023/06/22 09:49:00;;;;;;;;;;;;;;;;;;5035550;28;20332;-68
2023/06/22 09:51:26;;;;;;;;;;;;;;;;;;5039300;28;19960;-71
2023/06/22 09:53:53;;;;;;;;;;;;;;;;;;5054424;28;20045;-70
2023/06/22 09:56:19;;;;;;;;;;;;;;;;;;5036697;28;19960;-71
2023/06/22 09:58:46;;;;;;;;;;;;;;;;;;5048961;28;19972;-73
2023/06/22 10:01:12;;;;;;;;;;;;;;;;;;5054116;28;19955;-73
2023/06/22 10:03:38;;;;;;;;;;;;;;;;;;5039006;28;20022;-68
2023/06/22 10:06:03;;;;;;;;;;;;;;;;;;5041484;28;20009;-67
2023/06/22 10:08:29;;;;;;;;;;;;;;;;;;5059279;28;19964;-69
2023/06/22 10:10:55;;;;;;;;;;;;;;;;;;5038099;28;20409;-68
2023/06/22 10:13:21;;;;;;;;;;;;;;;;;;5047530;28;19991;-66
2023/06/22 10:15:51;;;;;;;;;;;;;;;;;;5065360;28;19966;-67
2023/06/22 10:18:17;;;;;;;;;;;;;;;;;;5054578;28;20009;-72
2023/06/22 10:20:43;;;;;;;;;;;;;;;;;;5059610;28;20042;-66
2023/06/22 10:23:08;;;;;;;;;;;;;;;;;;5073883;28;20072;-69
2023/06/22 10:25:34;;;;;;;;;;;;;;;;;;5073867;28;19962;-69
2023/06/22 10:28:00;;;;;;;;;;;;;;;;;;5074153;28;19955;-68
2023/06/22 10:30:26;;;;;;;;;;;;;;;;;;5068150;28;20340;-70
2023/06/22 10:32:52;;;;;;;;;;;;;;;;;;5056843;28;20013;-69
2023/06/22 10:35:18;;;;;;;;;;;;;;;;;;5053660;28;20388;-69
2023/06/22 10:37:44;;;;;;;;;;;;;;;;;;5053769;28;19956;-69
2023/06/22 10:40:10;;;;;;;;;;;;;;;;;;5053693;28;20047;-69
2023/06/22 10:42:36;;;;;;;;;;;;;;;;;;5053610;28;19995;-69
2023/06/22 10:45:02;;;;;;;;;;;;;;;;;;5053836;28;20006;-69
2023/06/22 10:47:28;;;;;;;;;;;;;;;;;;5053608;28;19963;-68
2023/06/22 10:49:55;;;;;;;;;;;;;;;;;;5054155;28;19956;-70
2023/06/22 10:52:21;;;;;;;;;;;;;;;;;;5052083;28;20317;-69
2023/06/22 10:54:47;;;;;;;;;;;;;;;;;;5054057;28;19963;-69
2023/06/22 10:57:12;;;;;;;;;;;;;;;;;;5053543;28;19956;-69
2023/06/22 10:59:38;;;;;;;;;;;;;;;;;;5053815;28;20523;-69
2023/06/22 11:02:04;;;;;;;;;;;;;;;;;;5054008;28;19989;-69
2023/06/22 11:04:30;;;;;;;;;;;;;;;;;;5053635;28;19976;-70
2023/06/22 11:06:56;;;;;;;;;;;;;;;;;;5053671;28;19960;-69
2023/06/22 11:09:22;;;;;;;;;;;;;;;;;;5053432;28;19960;-69
2023/06/22 11:11:48;;;;;;;;;;;;;;;;;;5053903;28;20420;-69
2023/06/22 11:14:14;;;;;;;;;;;;;;;;;;5053350;28;19956;-69
2023/06/22 11:16:40;;;;;;;;;;;;;;;;;;5053857;28;20392;-69
2023/06/22 11:19:06;;;;;;;;;;;;;;;;;;5053581;28;19960;-69
2023/06/22 11:21:32;;;;;;;;;;;;;;;;;;5056645;28;20324;-69
2023/06/22 11:23:58;;;;;;;;;;;;;;;;;;5057475;28;20057;-69
2023/06/22 11:26:24;;;;;;;;;;;;;;;;;;5057210;28;19963;-70
2023/06/22 11:28:50;;;;;;;;;;;;;;;;;;5057194;28;19956;-69
2023/06/22 11:31:16;;;;;;;;;;;;;;;;;;5057708;28;19960;-69
2023/06/22 11:33:42;;;;;;;;;;;;;;;;;;5055702;28;20502;-69
2023/06/22 11:36:09;;;;;;;;;;;;;;;;;;5057117;28;20074;-69
2023/06/22 11:38:36;;;;;;;;;;;;;;;;;;5056946;28;19966;-69
2023/06/22 11:41:02;;;;;;;;;;;;;;;;;;5057240;28;19961;-69
2023/06/22 11:43:28;;;;;;;;;;;;;;;;;;5056583;28;20089;-69
2023/06/22 11:45:55;;;;;;;;;;;;;;;;;;5056865;28;19956;-69
2023/06/22 11:48:21;;;;;;;;;;;;;;;;;;5057049;28;20035;-69
2023/06/22 11:50:47;;;;;;;;;;;;;;;;;;5056766;28;19992;-69
2023/06/22 11:53:16;;;;;;;;;;;;;;;;;;5057273;28;19955;-69
2023/06/22 11:55:42;;;;;;;;;;;;;;;;;;5056655;28;20041;-69
2023/06/22 11:58:08;;;;;;;;;;;;;;;;;;5056646;28;20449;-69
2023/06/22 12:00:34;;;;;;;;;;;;;;;;;;5056582;28;19959;-69
2023/06/22 12:03:00;;;;;;;;;;;;;;;;;;5057587;28;19962;-69
2023/06/22 12:05:25;;;;;;;;;;;;;;;;;;5056512;28;19960;-69
2023/06/22 12:07:51;;;;;;;;;;;;;;;;;;5056710;28;19959;-69
2023/06/22 12:10:18;;;;;;;;;;;;;;;;;;5056386;28;19962;-69
2023/06/22 12:12:44;;;;;;;;;;;;;;;;;;5057008;28;20472;-70
2023/06/22 12:15:10;;;;;;;;;;;;;;;;;;5056318;28;20042;-69
2023/06/22 12:17:36;;;;;;;;;;;;;;;;;;5056518;28;19959;-69
2023/06/22 12:20:05;;;;;;;;;;;;;;;;;;5056230;28;20046;-69
2023/06/22 12:22:31;;;;;;;;;;;;;;;;;;5054928;28;19960;-69
2023/06/22 12:24:56;;;;;;;;;;;;;;;;;;5056040;28;20423;-69
2023/06/22 12:27:22;;;;;;;;;;;;;;;;;;5056078;28;19955;-70
2023/06/22 12:29:48;;;;;;;;;;;;;;;;;;5042277;28;19961;-68
2023/06/22 12:32:14;;;;;;;;;;;;;;;;;;5046124;28;19960;-69
2023/06/22 12:34:40;;;;;;;;;;;;;;;;;;5036132;28;19972;-69
2023/06/22 12:37:06;;;;;;;;;;;;;;;;;;5036103;28;20417;-69
2023/06/22 12:39:32;;;;;;;;;;;;;;;;;;5043345;28;20051;-68
2023/06/22 12:41:58;;;;;;;;;;;;;;;;;;5040301;28;19988;-69
2023/06/22 12:44:24;;;;;;;;;;;;;;;;;;5039416;28;19989;-67
2023/06/22 12:46:50;;;;;;;;;;;;;;;;;;5049950;28;20463;-67
2023/06/22 12:49:16;;;;;;;;;;;;;;;;;;5040173;28;20021;-66
2023/06/22 12:51:45;;;;;;;;;;;;;;;;;;5044322;28;19966;-67
2023/06/22 12:54:10;;;;;;;;;;;;;;;;;;5041962;28;20313;-66
2023/06/22 12:56:36;;;;;;;;;;;;;;;;;;5051787;28;19960;-65
2023/06/22 12:59:02;;;;;;;;;;;;;;;;;;5043203;28;19964;-66
2023/06/22 13:01:28;;;;;;;;;;;;;;;;;;5038376;28;20457;-70
2023/06/22 13:03:54;;;;;;;;;;;;;;;;;;5043630;28;20022;-64
2023/06/22 13:06:20;;;;;;;;;;;;;;;;;;5044288;28;20339;-66
2023/06/22 13:08:46;;;;;;;;;;;;;;;;;;5040346;28;20007;-65
2023/06/22 13:11:12;;;;;;;;;;;;;;;;;;5040361;28;19959;-66
2023/06/22 13:13:38;;;;;;;;;;;;;;;;;;5036242;28;20320;-66
2023/06/22 13:16:03;;;;;;;;;;;;;;;;;;5035275;28;19994;-63
2023/06/22 13:18:29;;;;;;;;;;;;;;;;;;5049134;28;19985;-64
2023/06/22 13:20:55;;;;;;;;;;;;;;;;;;5055649;28;20445;-66
2023/06/22 13:23:21;;;;;;;;;;;;;;;;;;5048210;28;19980;-62
2023/06/22 13:25:47;;;;;;;;;;;;;;;;;;5034911;28;20308;-64
2023/06/22 13:28:15;;;;;;;;;;;;;;;;;;5037791;28;19964;-65
2023/06/22 13:30:41;;;;;;;;;;;;;;;;;;5053893;28;19960;-70
2023/06/22 13:33:08;;;;;;;;;;;;;;;;;;5052971;28;20446;-70
2023/06/22 13:35:35;;;;;;;;;;;;;;;;;;5044073;28;19979;-70
2023/06/22 13:38:00;;;;;;;;;;;;;;;;;;5050908;28;19964;-70
2023/06/22 13:40:26;;;;;;;;;;;;;;;;;;5047404;28;20437;-69
2023/06/22 13:42:52;;;;;;;;;;;;;;;;;;5051033;28;20045;-70
2023/06/22 13:45:19;;;;;;;;;;;;;;;;;;5051994;28;20047;-66
2023/06/22 13:47:45;;;;;;;;;;;;;;;;;;5051328;28;20051;-66
2023/06/22 13:50:12;;;;;;;;;;;;;;;;;;5055100;28;20386;-63
2023/06/22 13:52:38;;;;;;;;;;;;;;;;;;5054296;28;19964;-66
2023/06/22 13:55:04;;;;;;;;;;;;;;;;;;5045586;28;19986;-73
2023/06/22 13:57:30;;;;;;;;;;;;;;;;;;5053049;28;20326;-67
2023/06/22 13:59:56;;;;;;;;;;;;;;;;;;5037702;28;19968;-66
2023/06/22 14:02:22;;;;;;;;;;;;;;;;;;5034924;28;19995;-67
2023/06/22 14:04:48;;;;;;;;;;;;;;;;;;5052765;28;19976;-65
2023/06/22 14:07:14;;;;;;;;;;;;;;;;;;5054243;28;19956;-66
2023/06/22 14:09:40;;;;;;;;;;;;;;;;;;5054151;28;19956;-67
2023/06/22 14:12:06;;;;;;;;;;;;;;;;;;5042774;28;19979;-68
2023/06/22 14:14:32;;;;;;;;;;;;;;;;;;5045505;28;20475;-68
2023/06/22 14:16:58;;;;;;;;;;;;;;;;;;5034468;28;19967;-66
2023/06/22 14:19:24;;;;;;;;;;;;;;;;;;5040273;28;19956;-68
2023/06/22 14:21:50;;;;;;;;;;;;;;;;;;5053992;28;19982;-67
2023/06/22 14:24:16;;;;;;;;;;;;;;;;;;5053866;28;20351;-67
2023/06/22 14:26:42;;;;;;;;;;;;;;;;;;5034087;28;19964;-67
2023/06/22 14:29:08;;;;;;;;;;;;;;;;;;5036892;28;19964;-66
2023/06/22 14:31:34;;;;;;;;;;;;;;;;;;5033630;28;19967;-66
2023/06/22 14:34:00;;;;;;;;;;;;;;;;;;5038745;28;20363;-66
2023/06/22 14:36:26;;;;;;;;;;;;;;;;;;5053689;28;19971;-63
2023/06/22 14:38:52;;;;;;;;;;;;;;;;;;5051572;28;19968;-65
2023/06/22 14:41:18;;;;;;;;;;;;;;;;;;5041365;28;20433;-65
2023/06/22 14:43:43;;;;;;;;;;;;;;;;;;5034355;28;20078;-67
2023/06/22 14:46:09;;;;;;;;;;;;;;;;;;5042461;28;19964;-69
2023/06/22 14:48:35;;;;;;;;;;;;;;;;;;5053593;28;19964;-66
2023/06/22 14:51:01;;;;;;;;;;;;;;;;;;5048592;28;20498;-67
2023/06/22 14:53:27;;;;;;;;;;;;;;;;;;5042000;28;20014;-68
2023/06/22 14:55:54;;;;;;;;;;;;;;;;;;5041585;28;19968;-66
2023/06/22 14:58:20;;;;;;;;;;;;;;;;;;5031895;28;20343;-67
2023/06/22 15:00:46;;;;;;;;;;;;;;;;;;5033315;28;19959;-67
2023/06/22 15:03:16;;;;;;;;;;;;;;;;;;5034288;28;19983;-66
2023/06/22 15:05:42;;;;;;;;;;;;;;;;;;5032274;28;20348;-67
2023/06/22 15:08:08;;;;;;;;;;;;;;;;;;5034059;28;19956;-67
2023/06/22 15:10:34;;;;;;;;;;;;;;;;;;5033498;28;19957;-67
2023/06/22 15:13:01;;;;;;;;;;;;;;;;;;5032217;28;20509;-66
2023/06/22 15:15:27;;;;;;;;;;;;;;;;;;5033452;28;19963;-66
2023/06/22 15:17:53;;;;;;;;;;;;;;;;;;5033975;28;20312;-67
2023/06/22 15:20:18;;;;;;;;;;;;;;;;;;5033405;28;19964;-67
2023/06/22 15:22:45;;;;;;;;;;;;;;;;;;5033657;28;20363;-68
2023/06/22 15:25:11;;;;;;;;;;;;;;;;;;5033309;28;20066;-66
2023/06/22 15:27:36;;;;;;;;;;;;;;;;;;5033382;28;19997;-66
2023/06/22 15:30:03;;;;;;;;;;;;;;;;;;5033891;28;19956;-67
2023/06/22 15:32:29;;;;;;;;;;;;;;;;;;5033584;28;19986;-68
2023/06/22 15:34:55;;;;;;;;;;;;;;;;;;5033331;28;19972;-66
2023/06/22 15:37:21;;;;;;;;;;;;;;;;;;5033828;28;20055;-67
2023/06/22 15:39:47;;;;;;;;;;;;;;;;;;5033523;28;19956;-67
2023/06/22 15:42:13;;;;;;;;;;;;;;;;;;5033043;28;19987;-67
2023/06/22 15:44:39;;;;;;;;;;;;;;;;;;5033477;28;19999;-67
2023/06/22 15:47:05;;;;;;;;;;;;;;;;;;5033187;28;20066;-67
2023/06/22 15:49:31;;;;;;;;;;;;;;;;;;5033166;28;19956;-67
2023/06/22 15:51:57;;;;;;;;;;;;;;;;;;5033139;28;20002;-68
2023/06/22 15:54:23;;;;;;;;;;;;;;;;;;5033126;28;20054;-67
2023/06/22 15:56:48;;;;;;;;;;;;;;;;;;5033358;28;19957;-66
2023/06/22 15:59:14;;;;;;;;;;;;;;;;;;5033341;28;19961;-66
2023/06/22 16:01:40;;;;;;;;;;;;;;;;;;5033063;28;19956;-66
2023/06/22 16:04:06;;;;;;;;;;;;;;;;;;5033482;28;20027;-67
2023/06/22 16:06:32;;;;;;;;;;;;;;;;;;5033059;28;19962;-66
2023/06/22 16:08:58;;;;;;;;;;;;;;;;;;5036823;28;19988;-66
2023/06/22 16:11:24;;;;;;;;;;;;;;;;;;5036740;28;20038;-67
2023/06/22 16:13:50;;;;;;;;;;;;;;;;;;5036448;28;19999;-67
2023/06/22 16:16:16;;;;;;;;;;;;;;;;;;5036380;28;19982;-67
2023/06/22 16:18:42;;;;;;;;;;;;;;;;;;5036317;28;19956;-68
2023/06/22 16:21:08;;;;;;;;;;;;;;;;;;5036633;28;19956;-67
2023/06/22 16:23:33;;;;;;;;;;;;;;;;;;5036195;28;20114;-67
2023/06/22 16:25:59;;;;;;;;;;;;;;;;;;5036733;28;20431;-66
2023/06/22 16:28:25;;;;;;;;;;;;;;;;;;5036203;28;19956;-66
2023/06/22 16:30:51;;;;;;;;;;;;;;;;;;5036688;28;20413;-67
2023/06/22 16:33:17;;;;;;;;;;;;;;;;;;5036131;28;19992;-67
2023/06/22 16:35:43;;;;;;;;;;;;;;;;;;5036542;28;20424;-66
2023/06/22 16:38:09;;;;;;;;;;;;;;;;;;5036232;28;19957;-67